Sivas, Turkey

4:58 AM EEST on September 29, 2016 (GMT +0300)
Sivas | | Change Station

Elev 5233 ft 39.80 °N, 36.89 °E | Updated 1 hour ago

Mostly Cloudy
Mostly Cloudy
43 °F
Feels Like 39 °F
N
6
Wind Variable Wind from NW

Today
High -- | Low -- °F
--% Chance of Precip.
Yesterday
High -- | Low -- °F
Precip. -- in
Pressure 30.33 in
Visibility 6.2 miles
Clouds Mostly Cloudy 4000 ft
Windchill 39 °F
Dew Point 41 °F
Humidity 93%
Rainfall 0.00 in
Snow Depth Not available.
6:26 AM 6:17 PM
Waning Crescent, 4% visible
METAR LTAR 290050Z 32005KT 9999 BKN040 06/05 Q1027
Pressure 30.33 in
Visibility 6.2 miles
Clouds Mostly Cloudy 4000 ft
Windchill 39 °F
Dew Point 41 °F
Humidity 93%
Rainfall 0.00 in
Snow Depth Not available.
6:26 AM 6:17 PM
Waning Crescent, 4% visible
METAR LTAR 290050Z 32005KT 9999 BKN040 06/05 Q1027

10-Day Weather Forecast

×

Almanac

Astronomy

Sep. 29, 2016 Rise Set
Actual Time
Civil Twilight
Nautical Twilight
Astronomical Twilight
Moon
Length of Visible Light
Length of Day
Tomorrow will be .
, % of the Moon is Illuminated

Today's Extremes

Country Highs Country Lows

Community

WunderPhotos

Upload Photos

1,942,396 photos uploaded!

WunderBlog® & News

Nearby

Air Quality

  Air Quality AQ Index Pollutant
Not available.

Snow Depth

Station Depth Elevation

Earthquake Activity

City Distance Mag. Time & Date
Minimum magnitude displayed is 2.5.

Coastal Water Temperatures

Place Temperature

Stations

Nearby Weather Stations

Station Location Temp. Windchill Dew Point Humidity Wind Precip. Elev Updated Type